sensor_id;sensor_type;location;lat;lon;timestamp;temperature;humidity
5210;DHT22;2624;48.048;11.706;2023-07-13T00:04:39;19.40;99.90
5210;DHT22;2624;48.048;11.706;2023-07-13T00:09:41;19.30;99.90
5210;DHT22;2624;48.048;11.706;2023-07-13T00:14:43;19.40;99.90
5210;DHT22;2624;48.048;11.706;2023-07-13T00:19:46;19.50;99.90
5210;DHT22;2624;48.048;11.706;2023-07-13T00:24:48;19.40;99.90
5210;DHT22;2624;48.048;11.706;2023-07-13T00:29:52;19.60;99.90
5210;DHT22;2624;48.048;11.706;2023-07-13T00:34:55;19.60;99.90
5210;DHT22;2624;48.048;11.706;2023-07-13T00:39:58;19.40;99.90
5210;DHT22;2624;48.048;11.706;2023-07-13T00:45:01;19.70;99.90
5210;DHT22;2624;48.048;11.706;2023-07-13T00:50:07;19.70;99.90
5210;DHT22;2624;48.048;11.706;2023-07-13T00:55:11;19.80;99.90
5210;DHT22;2624;48.048;11.706;2023-07-13T01:00:13;19.80;99.90
5210;DHT22;2624;48.048;11.706;2023-07-13T01:05:20;19.70;99.90
5210;DHT22;2624;48.048;11.706;2023-07-13T01:10:23;19.70;99.90
5210;DHT22;2624;48.048;11.706;2023-07-13T01:15:36;19.70;99.90
5210;DHT22;2624;48.048;11.706;2023-07-13T01:20:39;19.40;99.90
5210;DHT22;2624;48.048;11.706;2023-07-13T01:25:43;19.60;99.90
5210;DHT22;2624;48.048;11.706;2023-07-13T01:30:45;19.70;99.90
5210;DHT22;2624;48.048;11.706;2023-07-13T01:35:47;19.60;99.90
5210;DHT22;2624;48.048;11.706;2023-07-13T01:40:51;19.50;99.90
5210;DHT22;2624;48.048;11.706;2023-07-13T01:45:53;19.40;99.90
5210;DHT22;2624;48.048;11.706;2023-07-13T01:50:55;19.40;99.90
5210;DHT22;2624;48.048;11.706;2023-07-13T01:55:58;19.60;99.90
5210;DHT22;2624;48.048;11.706;2023-07-13T02:01:00;19.60;99.90
5210;DHT22;2624;48.048;11.706;2023-07-13T02:06:01;19.50;99.90
5210;DHT22;2624;48.048;11.706;2023-07-13T02:11:04;19.30;99.90
5210;DHT22;2624;48.048;11.706;2023-07-13T02:16:06;19.50;99.90
5210;DHT22;2624;48.048;11.706;2023-07-13T02:21:08;19.30;99.90
5210;DHT22;2624;48.048;11.706;2023-07-13T02:26:11;19.30;99.90
5210;DHT22;2624;48.048;11.706;2023-07-13T02:31:14;19.40;99.90
5210;DHT22;2624;48.048;11.706;2023-07-13T02:36:16;19.20;99.90
5210;DHT22;2624;48.048;11.706;2023-07-13T02:41:20;19.40;99.90
5210;DHT22;2624;48.048;11.706;2023-07-13T02:46:23;19.60;99.90
5210;DHT22;2624;48.048;11.706;2023-07-13T02:51:26;19.40;99.90
5210;DHT22;2624;48.048;11.706;2023-07-13T02:56:31;19.40;99.90
5210;DHT22;2624;48.048;11.706;2023-07-13T03:01:33;19.80;99.90
5210;DHT22;2624;48.048;11.706;2023-07-13T03:06:35;20.00;99.90
5210;DHT22;2624;48.048;11.706;2023-07-13T03:11:38;19.90;99.90
5210;DHT22;2624;48.048;11.706;2023-07-13T03:16:40;19.70;99.90
5210;DHT22;2624;48.048;11.706;2023-07-13T03:21:42;19.50;99.90
5210;DHT22;2624;48.048;11.706;2023-07-13T03:26:45;19.50;99.90
5210;DHT22;2624;48.048;11.706;2023-07-13T03:31:47;19.90;99.90
5210;DHT22;2624;48.048;11.706;2023-07-13T03:36:49;20.00;99.90
5210;DHT22;2624;48.048;11.706;2023-07-13T03:41:52;20.10;99.90
5210;DHT22;2624;48.048;11.706;2023-07-13T03:46:54;20.00;99.90
5210;DHT22;2624;48.048;11.706;2023-07-13T03:51:56;20.10;99.90
5210;DHT22;2624;48.048;11.706;2023-07-13T03:56:59;20.00;99.90
5210;DHT22;2624;48.048;11.706;2023-07-13T04:02:01;19.70;99.90
5210;DHT22;2624;48.048;11.706;2023-07-13T04:07:05;19.80;99.90
5210;DHT22;2624;48.048;11.706;2023-07-13T04:12:09;19.50;99.90
5210;DHT22;2624;48.048;11.706;2023-07-13T04:17:11;19.70;99.90
5210;DHT22;2624;48.048;11.706;2023-07-13T04:22:12;19.80;99.90
5210;DHT22;2624;48.048;11.706;2023-07-13T04:27:16;19.70;99.90
5210;DHT22;2624;48.048;11.706;2023-07-13T04:32:17;19.80;99.90
5210;DHT22;2624;48.048;11.706;2023-07-13T04:37:20;19.60;99.90
5210;DHT22;2624;48.048;11.706;2023-07-13T04:42:23;19.60;99.90
5210;DHT22;2624;48.048;11.706;2023-07-13T04:47:25;19.10;99.90
5210;DHT22;2624;48.048;11.706;2023-07-13T04:52:27;18.60;99.90
5210;DHT22;2624;48.048;11.706;2023-07-13T04:57:30;18.90;99.90
5210;DHT22;2624;48.048;11.706;2023-07-13T05:02:32;18.70;99.90
5210;DHT22;2624;48.048;11.706;2023-07-13T05:07:33;18.70;99.90
5210;DHT22;2624;48.048;11.706;2023-07-13T05:12:37;18.70;99.90
5210;DHT22;2624;48.048;11.706;2023-07-13T05:17:38;18.80;99.90
5210;DHT22;2624;48.048;11.706;2023-07-13T05:22:40;18.50;99.90
5210;DHT22;2624;48.048;11.706;2023-07-13T05:27:44;18.60;99.90
5210;DHT22;2624;48.048;11.706;2023-07-13T05:32:47;18.60;99.90
5210;DHT22;2624;48.048;11.706;2023-07-13T05:37:49;18.60;99.90
5210;DHT22;2624;48.048;11.706;2023-07-13T05:42:52;18.60;99.90
5210;DHT22;2624;48.048;11.706;2023-07-13T05:47:54;18.50;99.90
5210;DHT22;2624;48.048;11.706;2023-07-13T05:52:55;18.40;99.90
5210;DHT22;2624;48.048;11.706;2023-07-13T05:58:00;18.30;99.90
5210;DHT22;2624;48.048;11.706;2023-07-13T06:03:02;18.30;99.90
5210;DHT22;2624;48.048;11.706;2023-07-13T06:08:04;18.30;99.90
5210;DHT22;2624;48.048;11.706;2023-07-13T06:13:07;18.50;99.90
5210;DHT22;2624;48.048;11.706;2023-07-13T06:18:09;18.30;99.90
5210;DHT22;2624;48.048;11.706;2023-07-13T06:23:10;18.40;99.90
5210;DHT22;2624;48.048;11.706;2023-07-13T06:28:14;18.60;99.90
5210;DHT22;2624;48.048;11.706;2023-07-13T06:33:15;18.60;99.90
5210;DHT22;2624;48.048;11.706;2023-07-13T06:38:17;18.40;99.90
5210;DHT22;2624;48.048;11.706;2023-07-13T06:43:20;18.40;99.90
5210;DHT22;2624;48.048;11.706;2023-07-13T06:48:22;18.50;99.90
5210;DHT22;2624;48.048;11.706;2023-07-13T06:53:24;18.80;99.90
5210;DHT22;2624;48.048;11.706;2023-07-13T06:58:28;18.60;99.90
5210;DHT22;2624;48.048;11.706;2023-07-13T07:03:29;18.50;99.90
5210;DHT22;2624;48.048;11.706;2023-07-13T07:08:31;18.60;99.90
5210;DHT22;2624;48.048;11.706;2023-07-13T07:13:34;18.80;99.90
5210;DHT22;2624;48.048;11.706;2023-07-13T07:18:36;18.80;99.90
5210;DHT22;2624;48.048;11.706;2023-07-13T07:23:38;18.80;99.90
5210;DHT22;2624;48.048;11.706;2023-07-13T07:28:41;18.80;99.90
5210;DHT22;2624;48.048;11.706;2023-07-13T07:33:43;18.80;99.90
5210;DHT22;2624;48.048;11.706;2023-07-13T07:38:45;18.60;99.90
5210;DHT22;2624;48.048;11.706;2023-07-13T07:43:48;19.00;99.90
5210;DHT22;2624;48.048;11.706;2023-07-13T07:48:50;19.00;99.90
5210;DHT22;2624;48.048;11.706;2023-07-13T07:53:51;18.90;99.90
5210;DHT22;2624;48.048;11.706;2023-07-13T07:58:54;18.90;99.90
5210;DHT22;2624;48.048;11.706;2023-07-13T08:03:56;19.00;99.90
5210;DHT22;2624;48.048;11.706;2023-07-13T08:08:58;19.00;99.90
5210;DHT22;2624;48.048;11.706;2023-07-13T08:14:01;19.00;99.90
5210;DHT22;2624;48.048;11.706;2023-07-13T08:19:03;18.90;99.90
5210;DHT22;2624;48.048;11.706;2023-07-13T08:24:06;19.10;99.90
5210;DHT22;2624;48.048;11.706;2023-07-13T08:29:09;19.10;99.90
5210;DHT22;2624;48.048;11.706;2023-07-13T08:34:11;19.10;99.90
5210;DHT22;2624;48.048;11.706;2023-07-13T08:39:15;19.00;99.90
5210;DHT22;2624;48.048;11.706;2023-07-13T08:44:23;18.80;99.90
5210;DHT22;2624;48.048;11.706;2023-07-13T08:49:29;18.80;99.90
5210;DHT22;2624;48.048;11.706;2023-07-13T08:54:34;19.10;99.90
5210;DHT22;2624;48.048;11.706;2023-07-13T08:59:37;18.80;99.90
5210;DHT22;2624;48.048;11.706;2023-07-13T09:04:42;18.80;99.90
5210;DHT22;2624;48.048;11.706;2023-07-13T09:09:57;18.80;99.90
5210;DHT22;2624;48.048;11.706;2023-07-13T09:15:17;19.10;99.90
5210;DHT22;2624;48.048;11.706;2023-07-13T09:20:26;19.00;99.90
5210;DHT22;2624;48.048;11.706;2023-07-13T09:25:31;19.00;99.90
5210;DHT22;2624;48.048;11.706;2023-07-13T09:30:40;18.90;99.90
5210;DHT22;2624;48.048;11.706;2023-07-13T09:35:44;18.90;99.90
5210;DHT22;2624;48.048;11.706;2023-07-13T09:40:59;18.90;99.90
5210;DHT22;2624;48.048;11.706;2023-07-13T09:46:20;18.70;99.90
5210;DHT22;2624;48.048;11.706;2023-07-13T09:51:23;18.90;99.90
5210;DHT22;2624;48.048;11.706;2023-07-13T09:56:27;18.90;99.90
5210;DHT22;2624;48.048;11.706;2023-07-13T10:01:34;18.80;99.90
5210;DHT22;2624;48.048;11.706;2023-07-13T10:06:36;19.00;99.90
5210;DHT22;2624;48.048;11.706;2023-07-13T10:11:40;19.10;99.90
5210;DHT22;2624;48.048;11.706;2023-07-13T10:16:45;19.20;99.90
5210;DHT22;2624;48.048;11.706;2023-07-13T10:21:50;18.90;99.90
5210;DHT22;2624;48.048;11.706;2023-07-13T10:26:58;18.80;99.90
5210;DHT22;2624;48.048;11.706;2023-07-13T10:32:09;18.90;99.90
5210;DHT22;2624;48.048;11.706;2023-07-13T10:37:17;19.10;99.90
5210;DHT22;2624;48.048;11.706;2023-07-13T10:42:29;19.40;99.90
5210;DHT22;2624;48.048;11.706;2023-07-13T10:47:33;19.30;99.90
5210;DHT22;2624;48.048;11.706;2023-07-13T10:52:42;19.40;99.90
5210;DHT22;2624;48.048;11.706;2023-07-13T10:57:46;19.40;99.90
5210;DHT22;2624;48.048;11.706;2023-07-13T11:02:58;19.60;99.90
5210;DHT22;2624;48.048;11.706;2023-07-13T11:08:16;19.80;99.90
5210;DHT22;2624;48.048;11.706;2023-07-13T11:13:57;20.00;99.90
5210;DHT22;2624;48.048;11.706;2023-07-13T11:24:59;19.90;99.90
5210;DHT22;2624;48.048;11.706;2023-07-13T11:35:26;20.20;99.90
5210;DHT22;2624;48.048;11.706;2023-07-13T11:40:30;20.80;99.90
5210;DHT22;2624;48.048;11.706;2023-07-13T11:45:33;20.90;99.90
5210;DHT22;2624;48.048;11.706;2023-07-13T11:50:34;21.00;99.90
5210;DHT22;2624;48.048;11.706;2023-07-13T11:55:39;21.10;99.90
5210;DHT22;2624;48.048;11.706;2023-07-13T12:00:40;20.90;99.90
5210;DHT22;2624;48.048;11.706;2023-07-13T12:05:55;20.90;99.90
5210;DHT22;2624;48.048;11.706;2023-07-13T12:11:05;21.10;99.90
5210;DHT22;2624;48.048;11.706;2023-07-13T12:16:12;21.20;99.90
5210;DHT22;2624;48.048;11.706;2023-07-13T12:21:18;21.30;99.90
5210;DHT22;2624;48.048;11.706;2023-07-13T12:26:21;21.20;99.90
5210;DHT22;2624;48.048;11.706;2023-07-13T12:31:26;21.20;99.90
5210;DHT22;2624;48.048;11.706;2023-07-13T12:36:33;21.10;99.90
5210;DHT22;2624;48.048;11.706;2023-07-13T12:41:36;21.20;99.90
5210;DHT22;2624;48.048;11.706;2023-07-13T12:46:38;21.60;99.90
5210;DHT22;2624;48.048;11.706;2023-07-13T12:51:40;21.80;99.90
5210;DHT22;2624;48.048;11.706;2023-07-13T12:56:45;21.50;99.90
5210;DHT22;2624;48.048;11.706;2023-07-13T13:01:53;21.60;99.90
5210;DHT22;2624;48.048;11.706;2023-07-13T13:07:03;21.80;99.90
5210;DHT22;2624;48.048;11.706;2023-07-13T13:12:07;22.10;99.90
5210;DHT22;2624;48.048;11.706;2023-07-13T13:17:21;21.80;99.90
5210;DHT22;2624;48.048;11.706;2023-07-13T13:22:24;22.10;99.90
5210;DHT22;2624;48.048;11.706;2023-07-13T13:27:27;22.50;99.90
5210;DHT22;2624;48.048;11.706;2023-07-13T13:32:29;22.60;99.90
5210;DHT22;2624;48.048;11.706;2023-07-13T13:37:31;22.30;99.90
5210;DHT22;2624;48.048;11.706;2023-07-13T13:42:34;22.10;99.90
5210;DHT22;2624;48.048;11.706;2023-07-13T13:47:36;22.10;99.90
5210;DHT22;2624;48.048;11.706;2023-07-13T13:52:38;22.20;99.90
5210;DHT22;2624;48.048;11.706;2023-07-13T13:57:42;22.10;99.90
5210;DHT22;2624;48.048;11.706;2023-07-13T14:02:46;21.90;99.90
5210;DHT22;2624;48.048;11.706;2023-07-13T14:07:48;22.00;99.90
5210;DHT22;2624;48.048;11.706;2023-07-13T14:12:53;22.00;99.90
5210;DHT22;2624;48.048;11.706;2023-07-13T14:17:56;22.00;99.90
5210;DHT22;2624;48.048;11.706;2023-07-13T14:22:58;22.00;99.90
5210;DHT22;2624;48.048;11.706;2023-07-13T14:28:16;22.00;99.90
5210;DHT22;2624;48.048;11.706;2023-07-13T14:33:19;22.00;99.90
5210;DHT22;2624;48.048;11.706;2023-07-13T14:38:21;22.10;99.90
5210;DHT22;2624;48.048;11.706;2023-07-13T14:43:24;22.40;99.90
5210;DHT22;2624;48.048;11.706;2023-07-13T14:48:28;22.40;99.90
5210;DHT22;2624;48.048;11.706;2023-07-13T14:53:30;22.40;99.90
5210;DHT22;2624;48.048;11.706;2023-07-13T14:58:33;22.40;99.90
5210;DHT22;2624;48.048;11.706;2023-07-13T15:03:36;22.40;99.90
5210;DHT22;2624;48.048;11.706;2023-07-13T15:08:38;22.30;99.90
5210;DHT22;2624;48.048;11.706;2023-07-13T15:13:42;22.40;99.90
5210;DHT22;2624;48.048;11.706;2023-07-13T15:18:45;22.30;99.90
5210;DHT22;2624;48.048;11.706;2023-07-13T15:23:48;22.30;99.90
5210;DHT22;2624;48.048;11.706;2023-07-13T15:28:51;22.30;99.90
5210;DHT22;2624;48.048;11.706;2023-07-13T15:33:55;22.30;99.90
5210;DHT22;2624;48.048;11.706;2023-07-13T15:38:57;22.30;99.90
5210;DHT22;2624;48.048;11.706;2023-07-13T15:44:07;22.30;99.90
5210;DHT22;2624;48.048;11.706;2023-07-13T15:49:14;22.30;99.90
5210;DHT22;2624;48.048;11.706;2023-07-13T15:54:18;22.30;99.90
5210;DHT22;2624;48.048;11.706;2023-07-13T15:59:21;22.30;99.90
5210;DHT22;2624;48.048;11.706;2023-07-13T16:04:23;22.30;99.90
5210;DHT22;2624;48.048;11.706;2023-07-13T16:09:25;22.30;99.90
5210;DHT22;2624;48.048;11.706;2023-07-13T16:14:29;22.30;99.90
5210;DHT22;2624;48.048;11.706;2023-07-13T16:19:31;22.20;99.90
5210;DHT22;2624;48.048;11.706;2023-07-13T16:24:34;22.20;99.90
5210;DHT22;2624;48.048;11.706;2023-07-13T16:29:37;22.20;99.90
5210;DHT22;2624;48.048;11.706;2023-07-13T16:34:42;22.20;99.90
5210;DHT22;2624;48.048;11.706;2023-07-13T16:39:47;22.20;99.90
5210;DHT22;2624;48.048;11.706;2023-07-13T16:44:51;22.20;99.80
5210;DHT22;2624;48.048;11.706;2023-07-13T16:49:54;22.20;99.90
5210;DHT22;2624;48.048;11.706;2023-07-13T16:54:58;22.20;99.90
5210;DHT22;2624;48.048;11.706;2023-07-13T17:00:04;22.20;99.90
5210;DHT22;2624;48.048;11.706;2023-07-13T17:05:13;22.20;99.90
5210;DHT22;2624;48.048;11.706;2023-07-13T17:10:19;22.20;99.90
5210;DHT22;2624;48.048;11.706;2023-07-13T17:15:26;22.20;99.90
5210;DHT22;2624;48.048;11.706;2023-07-13T17:20:31;22.10;99.90
5210;DHT22;2624;48.048;11.706;2023-07-13T17:25:37;22.00;99.90
5210;DHT22;2624;48.048;11.706;2023-07-13T17:30:43;22.00;99.90
5210;DHT22;2624;48.048;11.706;2023-07-13T17:35:45;21.90;99.90
5210;DHT22;2624;48.048;11.706;2023-07-13T17:40:47;21.90;99.90
5210;DHT22;2624;48.048;11.706;2023-07-13T17:45:50;21.80;99.90
5210;DHT22;2624;48.048;11.706;2023-07-13T17:50:54;21.80;99.90
5210;DHT22;2624;48.048;11.706;2023-07-13T17:55:57;21.90;99.90
5210;DHT22;2624;48.048;11.706;2023-07-13T18:01:00;21.80;99.90
5210;DHT22;2624;48.048;11.706;2023-07-13T18:06:03;21.80;99.90
5210;DHT22;2624;48.048;11.706;2023-07-13T18:11:08;21.80;99.90
5210;DHT22;2624;48.048;11.706;2023-07-13T18:16:17;21.80;99.90
5210;DHT22;2624;48.048;11.706;2023-07-13T18:21:20;21.60;99.90
5210;DHT22;2624;48.048;11.706;2023-07-13T18:26:24;21.60;99.90
5210;DHT22;2624;48.048;11.706;2023-07-13T18:31:33;21.50;99.90
5210;DHT22;2624;48.048;11.706;2023-07-13T18:36:35;21.40;99.90
5210;DHT22;2624;48.048;11.706;2023-07-13T18:41:39;21.40;99.90
5210;DHT22;2624;48.048;11.706;2023-07-13T18:46:42;21.40;99.90
5210;DHT22;2624;48.048;11.706;2023-07-13T18:51:44;21.30;99.90
5210;DHT22;2624;48.048;11.706;2023-07-13T18:56:48;21.30;99.90
5210;DHT22;2624;48.048;11.706;2023-07-13T19:01:51;21.20;99.90
5210;DHT22;2624;48.048;11.706;2023-07-13T19:06:53;21.10;99.90
5210;DHT22;2624;48.048;11.706;2023-07-13T19:11:55;21.20;99.90
5210;DHT22;2624;48.048;11.706;2023-07-13T19:16:58;21.20;99.90
5210;DHT22;2624;48.048;11.706;2023-07-13T19:21:59;21.20;99.90
5210;DHT22;2624;48.048;11.706;2023-07-13T19:27:03;21.00;99.90
5210;DHT22;2624;48.048;11.706;2023-07-13T19:32:08;20.90;99.90
5210;DHT22;2624;48.048;11.706;2023-07-13T19:37:20;20.80;99.90
5210;DHT22;2624;48.048;11.706;2023-07-13T19:42:23;20.80;99.90
5210;DHT22;2624;48.048;11.706;2023-07-13T19:47:27;20.80;99.90
5210;DHT22;2624;48.048;11.706;2023-07-13T19:52:29;20.80;99.90
5210;DHT22;2624;48.048;11.706;2023-07-13T19:57:31;20.80;99.90
5210;DHT22;2624;48.048;11.706;2023-07-13T20:02:34;20.70;99.90
5210;DHT22;2624;48.048;11.706;2023-07-13T20:07:36;20.70;99.90
5210;DHT22;2624;48.048;11.706;2023-07-13T20:12:38;20.70;99.90
5210;DHT22;2624;48.048;11.706;2023-07-13T20:17:42;20.80;99.90
5210;DHT22;2624;48.048;11.706;2023-07-13T20:22:45;20.70;99.90
5210;DHT22;2624;48.048;11.706;2023-07-13T20:27:47;20.60;99.90
5210;DHT22;2624;48.048;11.706;2023-07-13T20:32:51;20.60;99.90
5210;DHT22;2624;48.048;11.706;2023-07-13T20:37:56;20.60;99.90
5210;DHT22;2624;48.048;11.706;2023-07-13T20:42:59;20.40;99.90
5210;DHT22;2624;48.048;11.706;2023-07-13T20:48:21;20.30;99.90
5210;DHT22;2624;48.048;11.706;2023-07-13T20:53:26;20.20;99.90
5210;DHT22;2624;48.048;11.706;2023-07-13T20:58:28;20.20;99.90
5210;DHT22;2624;48.048;11.706;2023-07-13T21:03:31;20.20;99.90
5210;DHT22;2624;48.048;11.706;2023-07-13T21:08:33;20.10;99.90
5210;DHT22;2624;48.048;11.706;2023-07-13T21:13:35;20.30;99.90
5210;DHT22;2624;48.048;11.706;2023-07-13T21:18:38;20.00;99.90
5210;DHT22;2624;48.048;11.706;2023-07-13T21:23:40;20.20;99.90
5210;DHT22;2624;48.048;11.706;2023-07-13T21:28:44;20.10;99.90
5210;DHT22;2624;48.048;11.706;2023-07-13T21:33:48;20.00;99.90
5210;DHT22;2624;48.048;11.706;2023-07-13T21:38:54;19.90;99.90
5210;DHT22;2624;48.048;11.706;2023-07-13T21:43:56;19.90;99.90
5210;DHT22;2624;48.048;11.706;2023-07-13T21:48:59;19.90;99.90
5210;DHT22;2624;48.048;11.706;2023-07-13T21:54:01;19.80;99.90
5210;DHT22;2624;48.048;11.706;2023-07-13T21:59:07;20.00;99.90
5210;DHT22;2624;48.048;11.706;2023-07-13T22:04:13;19.60;99.90
5210;DHT22;2624;48.048;11.706;2023-07-13T22:09:18;19.50;99.90
5210;DHT22;2624;48.048;11.706;2023-07-13T22:14:21;19.40;99.90
5210;DHT22;2624;48.048;11.706;2023-07-13T22:19:27;19.40;99.90
5210;DHT22;2624;48.048;11.706;2023-07-13T22:24:30;19.70;99.90
5210;DHT22;2624;48.048;11.706;2023-07-13T22:29:33;19.50;99.90
5210;DHT22;2624;48.048;11.706;2023-07-13T22:34:36;19.40;99.90
5210;DHT22;2624;48.048;11.706;2023-07-13T22:39:38;19.50;99.90
5210;DHT22;2624;48.048;11.706;2023-07-13T22:44:39;19.30;99.90
5210;DHT22;2624;48.048;11.706;2023-07-13T22:49:43;19.20;99.90
5210;DHT22;2624;48.048;11.706;2023-07-13T22:54:45;19.30;99.90
5210;DHT22;2624;48.048;11.706;2023-07-13T22:59:48;19.00;99.90
5210;DHT22;2624;48.048;11.706;2023-07-13T23:04:51;19.00;99.90
5210;DHT22;2624;48.048;11.706;2023-07-13T23:09:53;19.00;99.90
5210;DHT22;2624;48.048;11.706;2023-07-13T23:14:55;19.00;99.90
5210;DHT22;2624;48.048;11.706;2023-07-13T23:19:58;18.80;99.90
5210;DHT22;2624;48.048;11.706;2023-07-13T23:25:00;18.70;99.90
5210;DHT22;2624;48.048;11.706;2023-07-13T23:30:02;18.70;99.90
5210;DHT22;2624;48.048;11.706;2023-07-13T23:35:10;18.90;99.90
5210;DHT22;2624;48.048;11.706;2023-07-13T23:40:16;19.10;99.90
5210;DHT22;2624;48.048;11.706;2023-07-13T23:45:20;19.30;99.90
5210;DHT22;2624;48.048;11.706;2023-07-13T23:50:25;19.20;99.90
5210;DHT22;2624;48.048;11.706;2023-07-13T23:55:29;18.80;99.90
